Hauptseite
METAR-TAF:

METAR-TAF

Flughäfen :

Wick Airport

Wick, Schottland

Breite: 58-27N, Länge: 003-05W, Höhe: 39 m

Beobachtung

Neuester Wetterbericht von vor 39 Minuten, um 03:20 UTC
Wind 9 kt aus Süd/Südwest
Temperatur 9°C
Luftfeuchtigkeit 81%
Luftdruck 1018 hPa
Sichtweite 10 km oder mehr

METAR: EGPC 160320Z AUTO 21009KT 9999 NCD 09/06 Q1018

Zeit: 03:59 (03:59 UTC)

Prognose

Neuester Wetterbericht von vor 2 Stunden und 2 Minuten, um 01:57 UTC
Gültige Prognose vom 16 um 03 UTC bis 16 um 12 UTC
Wind 9 kt aus Süd
Sichtweite 10 km oder mehr
Leicht bewölkt in der Höhe von 2500 ft

TAF: EGPC 160157Z 1603/1612 19009KT 9999 FEW025

Wetterbeobachtungen und Prognosen von mehr als 4000 Flughäfen (METAR und TAF Bericht).

Die verfügbaren Stationen werden durch gelbe und rote Markierungen auf der Karte dargestellt.

Führen Sie die Maus auf sie, um den Namen der Station zu sehen.

Darauf klicken, um die Beobachtung von Wetterbeobachtungen und Prognosen zu sehen.

Um die Karte zu ändern : klicken Sie auf den grünen Tasten mit einem schwarzen Kreuz Zum Vergrößern, auf den grünen Button mit einem Gedankenstrich zu verkleinern, oder auf die grünen Pfeile für benachbarte Karten.


METAR-TAF: